Terminal Aerodrome Forecast
Issued by NWS

Home | Current Version | Previous Version | Text Only | Print | Product List | Glossary On
Versions: 1 2 3 4 5 6 7 8 9 10 11 12 13 14
465
FTUS45 KRIW 122331
TAFCPR
TAF
KCPR 122331Z 1300/1324 21012G18KT P6SM FEW120 BKN250
     FM131500 22018G25KT P6SM SCT090 BKN200
     FM132100 26020G28KT P6SM FEW110=

USA.gov is the U.S. government's official web portal to all federal, state and local government web resources and services.